KRKS/RKS METAR and TAF weather

Enter ICAO airport designator
Station Type Date Time Source
KRKS METAR 2021/03/08 10:54 UTC NOAA

KRKS 081054Z AUTO 16003KT 10SM CLR 02/M08 A3002 RMK AO2 SLP140 T00221078


Station Type Date Time Source
KRKS Decoded METAR 2021/03/08 10:54 UTC NOAA

ROCK SPRINGS-SWEETWATER CO, WY, United States (KRKS) 41-36N 109-03W
Mar 08, 2021 - 05:54 AM EST / 2021.03.08 1054 UTC
Wind: from the SSE (160 degrees) at 3 MPH (3 KT):0
Visibility: 10 mile(s):0
Sky conditions: clear
Temperature: 36.0 F (2.2 C)
Dew Point: 18.0 F (-7.8 C)
Relative Humidity: 47%
Pressure (altimeter): 30.02 in. Hg (1016 hPa)
ob: KRKS 081054Z AUTO 16003KT 10SM CLR 02/M08 A3002 RMK AO2 SLP140 T00221078
cycle: 11

Station Type Date Time Source
KRKS TAF 2021/03/08 12:24 UTC NOAA

TAF KRKS 081123Z 0812/0912 VRB05KT P6SM BKN250
FM081800 17009KT P6SM BKN250
FM082100 21020G28KT P6SM BKN250
FM090200 18010KT P6SM BKN250
FM090900 26020G30KT P6SM BKN150

Example: see airport list